sensor_id;sensor_type;location;lat;lon;timestamp;P1;durP1;ratioP1;P2;durP2;ratioP2
16147;SDS011;8179;59.364;18.018;2024-01-16T00:01:12;771.80;;;713.57;;
16147;SDS011;8179;59.364;18.018;2024-01-16T00:03:41;753.17;;;670.70;;
16147;SDS011;8179;59.364;18.018;2024-01-16T00:06:08;718.80;;;662.37;;
16147;SDS011;8179;59.364;18.018;2024-01-16T00:08:36;827.53;;;590.90;;
16147;SDS011;8179;59.364;18.018;2024-01-16T00:11:03;406.03;;;390.77;;
16147;SDS011;8179;59.364;18.018;2024-01-16T00:13:29;806.10;;;723.40;;
16147;SDS011;8179;59.364;18.018;2024-01-16T00:15:55;391.13;;;374.77;;
16147;SDS011;8179;59.364;18.018;2024-01-16T00:18:23;661.00;;;603.90;;
16147;SDS011;8179;59.364;18.018;2024-01-16T00:20:51;1487.80;;;999.90;;
16147;SDS011;8179;59.364;18.018;2024-01-16T00:23:17;815.23;;;753.27;;
16147;SDS011;8179;59.364;18.018;2024-01-16T00:25:44;974.47;;;811.63;;
16147;SDS011;8179;59.364;18.018;2024-01-16T00:28:10;815.03;;;718.80;;
16147;SDS011;8179;59.364;18.018;2024-01-16T00:30:37;519.83;;;486.00;;
16147;SDS011;8179;59.364;18.018;2024-01-16T00:33:04;750.33;;;688.73;;
16147;SDS011;8179;59.364;18.018;2024-01-16T00:35:30;726.20;;;659.83;;
16147;SDS011;8179;59.364;18.018;2024-01-16T00:37:59;1030.87;;;891.53;;
16147;SDS011;8179;59.364;18.018;2024-01-16T00:40:25;922.07;;;763.37;;
16147;SDS011;8179;59.364;18.018;2024-01-16T00:42:52;494.93;;;468.33;;
16147;SDS011;8179;59.364;18.018;2024-01-16T00:45:19;854.37;;;764.07;;
16147;SDS011;8179;59.364;18.018;2024-01-16T00:47:46;1072.33;;;971.90;;
16147;SDS011;8179;59.364;18.018;2024-01-16T00:50:13;714.33;;;667.87;;
16147;SDS011;8179;59.364;18.018;2024-01-16T00:52:40;854.73;;;782.07;;
16147;SDS011;8179;59.364;18.018;2024-01-16T00:55:08;1091.80;;;752.20;;
16147;SDS011;8179;59.364;18.018;2024-01-16T00:57:34;388.83;;;369.43;;
16147;SDS011;8179;59.364;18.018;2024-01-16T01:00:01;331.47;;;317.43;;
16147;SDS011;8179;59.364;18.018;2024-01-16T01:02:29;610.43;;;574.73;;
16147;SDS011;8179;59.364;18.018;2024-01-16T01:04:55;873.60;;;761.70;;
16147;SDS011;8179;59.364;18.018;2024-01-16T01:07:22;697.03;;;622.53;;
16147;SDS011;8179;59.364;18.018;2024-01-16T01:09:50;627.43;;;567.30;;
16147;SDS011;8179;59.364;18.018;2024-01-16T01:12:18;912.30;;;813.63;;
16147;SDS011;8179;59.364;18.018;2024-01-16T01:14:45;1047.87;;;755.50;;
16147;SDS011;8179;59.364;18.018;2024-01-16T01:17:12;631.43;;;578.00;;
16147;SDS011;8179;59.364;18.018;2024-01-16T01:19:38;436.87;;;404.73;;
16147;SDS011;8179;59.364;18.018;2024-01-16T01:22:05;460.80;;;440.47;;
16147;SDS011;8179;59.364;18.018;2024-01-16T01:24:31;498.83;;;472.20;;
16147;SDS011;8179;59.364;18.018;2024-01-16T01:26:58;560.67;;;526.53;;
16147;SDS011;8179;59.364;18.018;2024-01-16T01:29:26;149.93;;;145.37;;
16147;SDS011;8179;59.364;18.018;2024-01-16T01:31:53;318.33;;;303.73;;
16147;SDS011;8179;59.364;18.018;2024-01-16T01:34:19;1106.40;;;906.30;;
16147;SDS011;8179;59.364;18.018;2024-01-16T01:36:46;686.03;;;640.87;;
16147;SDS011;8179;59.364;18.018;2024-01-16T01:39:13;921.77;;;819.43;;
16147;SDS011;8179;59.364;18.018;2024-01-16T01:41:40;253.53;;;239.97;;
16147;SDS011;8179;59.364;18.018;2024-01-16T01:44:06;548.17;;;520.97;;
16147;SDS011;8179;59.364;18.018;2024-01-16T01:46:42;184.47;;;177.03;;
16147;SDS011;8179;59.364;18.018;2024-01-16T01:49:08;558.67;;;517.33;;
16147;SDS011;8179;59.364;18.018;2024-01-16T01:51:35;436.10;;;418.83;;
16147;SDS011;8179;59.364;18.018;2024-01-16T01:54:02;220.97;;;213.00;;
16147;SDS011;8179;59.364;18.018;2024-01-16T01:56:29;247.87;;;234.83;;
16147;SDS011;8179;59.364;18.018;2024-01-16T01:58:56;161.43;;;156.37;;
16147;SDS011;8179;59.364;18.018;2024-01-16T02:01:25;230.57;;;221.77;;
16147;SDS011;8179;59.364;18.018;2024-01-16T02:03:55;173.63;;;167.83;;
16147;SDS011;8179;59.364;18.018;2024-01-16T02:06:22;126.40;;;122.43;;
16147;SDS011;8179;59.364;18.018;2024-01-16T02:08:48;100.13;;;96.87;;
16147;SDS011;8179;59.364;18.018;2024-01-16T02:11:15;240.87;;;230.73;;
16147;SDS011;8179;59.364;18.018;2024-01-16T02:13:41;189.97;;;182.60;;
16147;SDS011;8179;59.364;18.018;2024-01-16T02:16:16;206.70;;;199.20;;
16147;SDS011;8179;59.364;18.018;2024-01-16T02:18:43;349.10;;;333.47;;
16147;SDS011;8179;59.364;18.018;2024-01-16T02:21:11;163.27;;;157.40;;
16147;SDS011;8179;59.364;18.018;2024-01-16T02:23:40;132.13;;;128.03;;
16147;SDS011;8179;59.364;18.018;2024-01-16T02:26:07;90.17;;;87.43;;
16147;SDS011;8179;59.364;18.018;2024-01-16T02:28:33;128.17;;;124.07;;
16147;SDS011;8179;59.364;18.018;2024-01-16T02:31:00;214.97;;;207.00;;
16147;SDS011;8179;59.364;18.018;2024-01-16T02:33:27;86.80;;;84.10;;
16147;SDS011;8179;59.364;18.018;2024-01-16T02:35:53;133.03;;;128.60;;
16147;SDS011;8179;59.364;18.018;2024-01-16T02:38:20;85.73;;;83.07;;
16147;SDS011;8179;59.364;18.018;2024-01-16T02:40:48;382.80;;;361.37;;
16147;SDS011;8179;59.364;18.018;2024-01-16T02:43:15;75.20;;;72.87;;
16147;SDS011;8179;59.364;18.018;2024-01-16T02:45:41;129.17;;;124.90;;
16147;SDS011;8179;59.364;18.018;2024-01-16T02:48:08;127.60;;;123.67;;
16147;SDS011;8179;59.364;18.018;2024-01-16T02:50:36;74.90;;;72.40;;
16147;SDS011;8179;59.364;18.018;2024-01-16T02:53:03;131.97;;;128.00;;
16147;SDS011;8179;59.364;18.018;2024-01-16T02:55:30;276.67;;;263.93;;
16147;SDS011;8179;59.364;18.018;2024-01-16T02:57:59;446.47;;;384.83;;
16147;SDS011;8179;59.364;18.018;2024-01-16T03:00:28;418.90;;;394.33;;
16147;SDS011;8179;59.364;18.018;2024-01-16T03:02:55;267.53;;;253.87;;
16147;SDS011;8179;59.364;18.018;2024-01-16T03:05:21;59.30;;;57.47;;
16147;SDS011;8179;59.364;18.018;2024-01-16T03:07:48;112.77;;;109.10;;
16147;SDS011;8179;59.364;18.018;2024-01-16T03:10:15;70.63;;;68.33;;
16147;SDS011;8179;59.364;18.018;2024-01-16T03:12:41;133.73;;;129.37;;
16147;SDS011;8179;59.364;18.018;2024-01-16T03:15:09;119.50;;;115.43;;
16147;SDS011;8179;59.364;18.018;2024-01-16T03:17:37;132.93;;;128.77;;
16147;SDS011;8179;59.364;18.018;2024-01-16T03:20:04;346.63;;;326.70;;
16147;SDS011;8179;59.364;18.018;2024-01-16T03:22:30;127.93;;;121.23;;
16147;SDS011;8179;59.364;18.018;2024-01-16T03:24:57;59.70;;;57.70;;
16147;SDS011;8179;59.364;18.018;2024-01-16T03:27:24;117.43;;;113.70;;
16147;SDS011;8179;59.364;18.018;2024-01-16T03:29:50;61.70;;;59.77;;
16147;SDS011;8179;59.364;18.018;2024-01-16T03:32:18;77.50;;;74.97;;
16147;SDS011;8179;59.364;18.018;2024-01-16T03:34:45;54.57;;;52.87;;
16147;SDS011;8179;59.364;18.018;2024-01-16T03:37:11;251.53;;;241.53;;
16147;SDS011;8179;59.364;18.018;2024-01-16T03:39:38;42.27;;;41.00;;
16147;SDS011;8179;59.364;18.018;2024-01-16T03:42:05;40.70;;;39.30;;
16147;SDS011;8179;59.364;18.018;2024-01-16T03:44:31;39.63;;;38.23;;
16147;SDS011;8179;59.364;18.018;2024-01-16T03:47:00;68.57;;;66.43;;
16147;SDS011;8179;59.364;18.018;2024-01-16T03:49:28;61.30;;;59.33;;
16147;SDS011;8179;59.364;18.018;2024-01-16T03:51:55;59.33;;;57.53;;
16147;SDS011;8179;59.364;18.018;2024-01-16T03:54:24;46.10;;;44.63;;
16147;SDS011;8179;59.364;18.018;2024-01-16T03:56:51;130.80;;;126.03;;
16147;SDS011;8179;59.364;18.018;2024-01-16T03:59:18;52.37;;;50.30;;
16147;SDS011;8179;59.364;18.018;2024-01-16T04:01:44;33.73;;;32.67;;
16147;SDS011;8179;59.364;18.018;2024-01-16T04:04:13;94.27;;;91.30;;
16147;SDS011;8179;59.364;18.018;2024-01-16T04:06:41;96.67;;;93.63;;
16147;SDS011;8179;59.364;18.018;2024-01-16T04:09:07;65.13;;;62.93;;
16147;SDS011;8179;59.364;18.018;2024-01-16T04:11:34;65.90;;;63.87;;
16147;SDS011;8179;59.364;18.018;2024-01-16T04:14:01;59.17;;;57.40;;
16147;SDS011;8179;59.364;18.018;2024-01-16T04:16:30;37.17;;;35.47;;
16147;SDS011;8179;59.364;18.018;2024-01-16T04:18:57;144.87;;;136.80;;
16147;SDS011;8179;59.364;18.018;2024-01-16T04:21:24;96.07;;;91.40;;
16147;SDS011;8179;59.364;18.018;2024-01-16T04:23:52;142.03;;;137.20;;
16147;SDS011;8179;59.364;18.018;2024-01-16T04:26:19;317.50;;;294.13;;
16147;SDS011;8179;59.364;18.018;2024-01-16T04:28:46;137.50;;;131.97;;
16147;SDS011;8179;59.364;18.018;2024-01-16T04:31:13;150.23;;;142.20;;
16147;SDS011;8179;59.364;18.018;2024-01-16T04:33:42;58.70;;;56.87;;
16147;SDS011;8179;59.364;18.018;2024-01-16T04:36:08;196.27;;;186.13;;
16147;SDS011;8179;59.364;18.018;2024-01-16T04:38:35;40.20;;;38.97;;
16147;SDS011;8179;59.364;18.018;2024-01-16T04:41:03;89.50;;;86.70;;
16147;SDS011;8179;59.364;18.018;2024-01-16T04:43:30;180.63;;;173.97;;
16147;SDS011;8179;59.364;18.018;2024-01-16T04:45:57;67.03;;;64.73;;
16147;SDS011;8179;59.364;18.018;2024-01-16T04:48:23;133.60;;;129.10;;
16147;SDS011;8179;59.364;18.018;2024-01-16T04:50:50;103.17;;;99.90;;
16147;SDS011;8179;59.364;18.018;2024-01-16T04:53:17;73.30;;;71.03;;
16147;SDS011;8179;59.364;18.018;2024-01-16T04:55:44;185.17;;;175.57;;
16147;SDS011;8179;59.364;18.018;2024-01-16T04:58:12;64.03;;;61.73;;
16147;SDS011;8179;59.364;18.018;2024-01-16T05:00:40;58.53;;;56.73;;
16147;SDS011;8179;59.364;18.018;2024-01-16T05:03:07;131.50;;;126.00;;
16147;SDS011;8179;59.364;18.018;2024-01-16T05:05:33;96.77;;;93.63;;
16147;SDS011;8179;59.364;18.018;2024-01-16T05:08:00;59.70;;;57.60;;
16147;SDS011;8179;59.364;18.018;2024-01-16T05:10:27;101.73;;;98.37;;
16147;SDS011;8179;59.364;18.018;2024-01-16T05:12:53;112.50;;;108.10;;
16147;SDS011;8179;59.364;18.018;2024-01-16T05:15:23;232.77;;;221.47;;
16147;SDS011;8179;59.364;18.018;2024-01-16T05:17:49;163.20;;;153.27;;
16147;SDS011;8179;59.364;18.018;2024-01-16T05:20:16;76.43;;;73.97;;
16147;SDS011;8179;59.364;18.018;2024-01-16T05:22:43;82.37;;;79.80;;
16147;SDS011;8179;59.364;18.018;2024-01-16T05:25:09;32.27;;;31.27;;
16147;SDS011;8179;59.364;18.018;2024-01-16T05:27:36;25.00;;;24.27;;
16147;SDS011;8179;59.364;18.018;2024-01-16T05:30:05;53.83;;;52.13;;
16147;SDS011;8179;59.364;18.018;2024-01-16T05:32:34;54.70;;;52.93;;
16147;SDS011;8179;59.364;18.018;2024-01-16T05:35:01;113.37;;;109.17;;
16147;SDS011;8179;59.364;18.018;2024-01-16T05:37:28;76.83;;;74.47;;
16147;SDS011;8179;59.364;18.018;2024-01-16T05:39:55;192.43;;;185.87;;
16147;SDS011;8179;59.364;18.018;2024-01-16T05:42:22;266.10;;;256.67;;
16147;SDS011;8179;59.364;18.018;2024-01-16T05:44:49;56.30;;;54.50;;
16147;SDS011;8179;59.364;18.018;2024-01-16T05:47:16;77.47;;;74.90;;
16147;SDS011;8179;59.364;18.018;2024-01-16T05:49:44;103.53;;;100.33;;
16147;SDS011;8179;59.364;18.018;2024-01-16T05:52:11;115.47;;;111.97;;
16147;SDS011;8179;59.364;18.018;2024-01-16T05:54:37;47.67;;;46.17;;
16147;SDS011;8179;59.364;18.018;2024-01-16T05:57:04;56.97;;;54.83;;
16147;SDS011;8179;59.364;18.018;2024-01-16T05:59:30;56.47;;;54.77;;
16147;SDS011;8179;59.364;18.018;2024-01-16T06:01:57;192.23;;;181.30;;
16147;SDS011;8179;59.364;18.018;2024-01-16T06:04:24;75.60;;;72.93;;
16147;SDS011;8179;59.364;18.018;2024-01-16T06:06:52;127.00;;;122.87;;
16147;SDS011;8179;59.364;18.018;2024-01-16T06:09:18;70.63;;;68.30;;
16147;SDS011;8179;59.364;18.018;2024-01-16T06:11:45;90.40;;;87.50;;
16147;SDS011;8179;59.364;18.018;2024-01-16T06:14:13;191.80;;;181.57;;
16147;SDS011;8179;59.364;18.018;2024-01-16T06:16:44;332.27;;;316.00;;
16147;SDS011;8179;59.364;18.018;2024-01-16T06:19:11;148.77;;;143.17;;
16147;SDS011;8179;59.364;18.018;2024-01-16T06:21:38;175.13;;;167.80;;
16147;SDS011;8179;59.364;18.018;2024-01-16T06:24:06;79.13;;;76.67;;
16147;SDS011;8179;59.364;18.018;2024-01-16T06:26:33;242.23;;;227.10;;
16147;SDS011;8179;59.364;18.018;2024-01-16T06:28:59;24.03;;;23.33;;
16147;SDS011;8179;59.364;18.018;2024-01-16T06:31:26;138.73;;;133.63;;
16147;SDS011;8179;59.364;18.018;2024-01-16T06:33:53;153.10;;;146.30;;
16147;SDS011;8179;59.364;18.018;2024-01-16T06:36:19;88.43;;;85.10;;
16147;SDS011;8179;59.364;18.018;2024-01-16T06:38:46;74.17;;;71.83;;
16147;SDS011;8179;59.364;18.018;2024-01-16T06:41:14;35.80;;;34.70;;
16147;SDS011;8179;59.364;18.018;2024-01-16T06:43:41;44.53;;;43.13;;
16147;SDS011;8179;59.364;18.018;2024-01-16T06:46:08;59.03;;;56.87;;
16147;SDS011;8179;59.364;18.018;2024-01-16T06:48:34;26.80;;;25.97;;
16147;SDS011;8179;59.364;18.018;2024-01-16T06:51:02;82.20;;;79.50;;
16147;SDS011;8179;59.364;18.018;2024-01-16T06:53:28;34.10;;;32.73;;
16147;SDS011;8179;59.364;18.018;2024-01-16T06:55:55;58.47;;;56.47;;
16147;SDS011;8179;59.364;18.018;2024-01-16T06:58:23;115.03;;;110.67;;
16147;SDS011;8179;59.364;18.018;2024-01-16T07:00:50;72.97;;;70.37;;
16147;SDS011;8179;59.364;18.018;2024-01-16T07:03:16;33.67;;;32.60;;
16147;SDS011;8179;59.364;18.018;2024-01-16T07:05:43;67.37;;;65.13;;
16147;SDS011;8179;59.364;18.018;2024-01-16T07:08:10;37.90;;;36.60;;
16147;SDS011;8179;59.364;18.018;2024-01-16T07:10:37;49.93;;;48.43;;
16147;SDS011;8179;59.364;18.018;2024-01-16T07:13:03;49.13;;;47.17;;
16147;SDS011;8179;59.364;18.018;2024-01-16T07:15:34;40.90;;;39.43;;
16147;SDS011;8179;59.364;18.018;2024-01-16T07:18:00;32.07;;;31.07;;
16147;SDS011;8179;59.364;18.018;2024-01-16T07:20:27;104.00;;;97.03;;
16147;SDS011;8179;59.364;18.018;2024-01-16T07:22:54;90.57;;;87.37;;
16147;SDS011;8179;59.364;18.018;2024-01-16T07:25:20;19.87;;;19.17;;
16147;SDS011;8179;59.364;18.018;2024-01-16T07:27:47;27.80;;;26.80;;
16147;SDS011;8179;59.364;18.018;2024-01-16T07:30:15;27.67;;;26.60;;
16147;SDS011;8179;59.364;18.018;2024-01-16T07:32:43;103.03;;;97.60;;
16147;SDS011;8179;59.364;18.018;2024-01-16T07:35:10;45.87;;;44.10;;
16147;SDS011;8179;59.364;18.018;2024-01-16T07:37:37;34.33;;;31.23;;
16147;SDS011;8179;59.364;18.018;2024-01-16T07:40:04;52.37;;;50.07;;
16147;SDS011;8179;59.364;18.018;2024-01-16T07:42:31;46.00;;;44.37;;
16147;SDS011;8179;59.364;18.018;2024-01-16T07:44:59;49.90;;;48.13;;
16147;SDS011;8179;59.364;18.018;2024-01-16T07:47:26;71.07;;;68.63;;
16147;SDS011;8179;59.364;18.018;2024-01-16T07:49:54;64.37;;;62.23;;
16147;SDS011;8179;59.364;18.018;2024-01-16T07:52:20;87.53;;;83.53;;
16147;SDS011;8179;59.364;18.018;2024-01-16T07:54:47;40.23;;;38.93;;
16147;SDS011;8179;59.364;18.018;2024-01-16T07:57:14;39.13;;;37.87;;
16147;SDS011;8179;59.364;18.018;2024-01-16T07:59:40;56.43;;;54.63;;
16147;SDS011;8179;59.364;18.018;2024-01-16T08:02:07;24.90;;;23.90;;
16147;SDS011;8179;59.364;18.018;2024-01-16T08:04:34;22.97;;;22.20;;
16147;SDS011;8179;59.364;18.018;2024-01-16T08:07:02;33.17;;;32.17;;
16147;SDS011;8179;59.364;18.018;2024-01-16T08:09:29;31.87;;;30.73;;
16147;SDS011;8179;59.364;18.018;2024-01-16T08:11:56;43.27;;;41.63;;
16147;SDS011;8179;59.364;18.018;2024-01-16T08:14:22;76.60;;;74.17;;
16147;SDS011;8179;59.364;18.018;2024-01-16T08:16:49;47.80;;;46.23;;
16147;SDS011;8179;59.364;18.018;2024-01-16T08:19:16;61.37;;;59.20;;
16147;SDS011;8179;59.364;18.018;2024-01-16T08:21:42;13.10;;;12.67;;
16147;SDS011;8179;59.364;18.018;2024-01-16T08:24:10;59.33;;;57.47;;
16147;SDS011;8179;59.364;18.018;2024-01-16T08:26:39;40.73;;;38.60;;
16147;SDS011;8179;59.364;18.018;2024-01-16T08:29:05;18.17;;;17.57;;
16147;SDS011;8179;59.364;18.018;2024-01-16T08:31:32;34.97;;;33.87;;
16147;SDS011;8179;59.364;18.018;2024-01-16T08:33:59;25.60;;;24.60;;
16147;SDS011;8179;59.364;18.018;2024-01-16T08:36:26;34.83;;;33.73;;
16147;SDS011;8179;59.364;18.018;2024-01-16T08:38:52;29.90;;;28.93;;
16147;SDS011;8179;59.364;18.018;2024-01-16T08:41:21;37.10;;;36.00;;
16147;SDS011;8179;59.364;18.018;2024-01-16T08:43:48;51.30;;;49.43;;
16147;SDS011;8179;59.364;18.018;2024-01-16T08:46:14;46.83;;;45.37;;
16147;SDS011;8179;59.364;18.018;2024-01-16T08:48:41;28.70;;;27.80;;
16147;SDS011;8179;59.364;18.018;2024-01-16T08:51:08;21.77;;;20.93;;
16147;SDS011;8179;59.364;18.018;2024-01-16T08:53:39;35.27;;;33.83;;
16147;SDS011;8179;59.364;18.018;2024-01-16T08:56:05;28.03;;;27.07;;
16147;SDS011;8179;59.364;18.018;2024-01-16T08:58:35;33.53;;;32.53;;
16147;SDS011;8179;59.364;18.018;2024-01-16T09:01:03;56.97;;;55.23;;
16147;SDS011;8179;59.364;18.018;2024-01-16T09:03:30;32.37;;;31.37;;
16147;SDS011;8179;59.364;18.018;2024-01-16T09:05:56;54.97;;;53.17;;
16147;SDS011;8179;59.364;18.018;2024-01-16T09:08:23;108.67;;;105.17;;
16147;SDS011;8179;59.364;18.018;2024-01-16T09:10:51;54.57;;;52.87;;
16147;SDS011;8179;59.364;18.018;2024-01-16T09:13:18;47.17;;;45.53;;
16147;SDS011;8179;59.364;18.018;2024-01-16T09:15:47;24.13;;;23.30;;
16147;SDS011;8179;59.364;18.018;2024-01-16T09:18:13;83.23;;;80.47;;
16147;SDS011;8179;59.364;18.018;2024-01-16T09:20:40;75.33;;;73.00;;
16147;SDS011;8179;59.364;18.018;2024-01-16T09:23:07;88.17;;;84.73;;
16147;SDS011;8179;59.364;18.018;2024-01-16T09:25:34;17.93;;;17.40;;
16147;SDS011;8179;59.364;18.018;2024-01-16T09:28:00;40.40;;;39.10;;
16147;SDS011;8179;59.364;18.018;2024-01-16T09:30:27;20.70;;;20.07;;
16147;SDS011;8179;59.364;18.018;2024-01-16T09:32:55;13.67;;;13.17;;
16147;SDS011;8179;59.364;18.018;2024-01-16T09:35:22;16.70;;;16.20;;
16147;SDS011;8179;59.364;18.018;2024-01-16T09:37:48;32.87;;;31.70;;
16147;SDS011;8179;59.364;18.018;2024-01-16T09:40:16;42.60;;;40.67;;
16147;SDS011;8179;59.364;18.018;2024-01-16T09:42:43;125.17;;;120.87;;
16147;SDS011;8179;59.364;18.018;2024-01-16T09:45:10;131.20;;;127.03;;
16147;SDS011;8179;59.364;18.018;2024-01-16T09:47:37;175.40;;;170.00;;
16147;SDS011;8179;59.364;18.018;2024-01-16T09:50:06;211.40;;;204.67;;
16147;SDS011;8179;59.364;18.018;2024-01-16T09:52:42;153.70;;;149.00;;
16147;SDS011;8179;59.364;18.018;2024-01-16T09:55:09;199.90;;;193.73;;
16147;SDS011;8179;59.364;18.018;2024-01-16T09:57:36;502.03;;;482.83;;
16147;SDS011;8179;59.364;18.018;2024-01-16T10:00:06;462.27;;;445.67;;
16147;SDS011;8179;59.364;18.018;2024-01-16T10:02:34;363.53;;;351.10;;
16147;SDS011;8179;59.364;18.018;2024-01-16T10:05:01;425.60;;;410.30;;
16147;SDS011;8179;59.364;18.018;2024-01-16T10:07:29;438.83;;;423.80;;
16147;SDS011;8179;59.364;18.018;2024-01-16T10:09:56;183.03;;;177.33;;
16147;SDS011;8179;59.364;18.018;2024-01-16T10:12:23;350.03;;;338.30;;
16147;SDS011;8179;59.364;18.018;2024-01-16T10:14:50;266.03;;;257.77;;
16147;SDS011;8179;59.364;18.018;2024-01-16T10:17:17;317.93;;;307.73;;
16147;SDS011;8179;59.364;18.018;2024-01-16T10:19:48;474.53;;;456.90;;
16147;SDS011;8179;59.364;18.018;2024-01-16T10:22:19;455.73;;;437.87;;
16147;SDS011;8179;59.364;18.018;2024-01-16T10:24:47;386.20;;;372.57;;
16147;SDS011;8179;59.364;18.018;2024-01-16T10:27:15;577.90;;;553.70;;
16147;SDS011;8179;59.364;18.018;2024-01-16T10:29:45;364.23;;;352.40;;
16147;SDS011;8179;59.364;18.018;2024-01-16T10:32:26;407.23;;;393.27;;
16147;SDS011;8179;59.364;18.018;2024-01-16T10:35:00;375.17;;;362.67;;
16147;SDS011;8179;59.364;18.018;2024-01-16T10:37:27;340.00;;;328.40;;
16147;SDS011;8179;59.364;18.018;2024-01-16T10:39:55;207.50;;;201.03;;
16147;SDS011;8179;59.364;18.018;2024-01-16T10:42:22;337.63;;;326.60;;
16147;SDS011;8179;59.364;18.018;2024-01-16T10:44:52;616.50;;;578.53;;
16147;SDS011;8179;59.364;18.018;2024-01-16T10:47:20;406.37;;;391.63;;
16147;SDS011;8179;59.364;18.018;2024-01-16T10:49:47;305.20;;;295.13;;
16147;SDS011;8179;59.364;18.018;2024-01-16T10:52:14;420.27;;;405.00;;
16147;SDS011;8179;59.364;18.018;2024-01-16T10:54:43;426.57;;;411.77;;
16147;SDS011;8179;59.364;18.018;2024-01-16T10:57:16;507.13;;;486.53;;
16147;SDS011;8179;59.364;18.018;2024-01-16T10:59:47;242.80;;;235.10;;
16147;SDS011;8179;59.364;18.018;2024-01-16T11:02:15;403.43;;;389.67;;
16147;SDS011;8179;59.364;18.018;2024-01-16T11:04:43;430.03;;;415.03;;
16147;SDS011;8179;59.364;18.018;2024-01-16T11:07:12;313.77;;;303.70;;
16147;SDS011;8179;59.364;18.018;2024-01-16T11:09:39;186.73;;;181.00;;
16147;SDS011;8179;59.364;18.018;2024-01-16T11:12:06;322.03;;;311.83;;
16147;SDS011;8179;59.364;18.018;2024-01-16T11:14:37;376.80;;;364.40;;
16147;SDS011;8179;59.364;18.018;2024-01-16T11:17:04;271.90;;;263.67;;
16147;SDS011;8179;59.364;18.018;2024-01-16T11:19:31;491.33;;;472.77;;
16147;SDS011;8179;59.364;18.018;2024-01-16T11:21:58;357.77;;;345.87;;
16147;SDS011;8179;59.364;18.018;2024-01-16T11:24:25;386.73;;;372.77;;
16147;SDS011;8179;59.364;18.018;2024-01-16T11:26:52;181.17;;;175.47;;
16147;SDS011;8179;59.364;18.018;2024-01-16T11:29:35;348.40;;;336.60;;
16147;SDS011;8179;59.364;18.018;2024-01-16T11:32:04;361.40;;;349.33;;
16147;SDS011;8179;59.364;18.018;2024-01-16T11:37:20;400.83;;;387.20;;
16147;SDS011;8179;59.364;18.018;2024-01-16T11:39:52;340.07;;;328.23;;
16147;SDS011;8179;59.364;18.018;2024-01-16T11:42:25;315.77;;;305.40;;
16147;SDS011;8179;59.364;18.018;2024-01-16T11:44:52;166.07;;;160.93;;
16147;SDS011;8179;59.364;18.018;2024-01-16T11:47:20;319.83;;;308.87;;
16147;SDS011;8179;59.364;18.018;2024-01-16T11:49:51;356.63;;;344.93;;
16147;SDS011;8179;59.364;18.018;2024-01-16T11:54:59;437.80;;;421.20;;
16147;SDS011;8179;59.364;18.018;2024-01-16T11:57:26;258.93;;;250.33;;
16147;SDS011;8179;59.364;18.018;2024-01-16T11:59:59;226.87;;;219.87;;
16147;SDS011;8179;59.364;18.018;2024-01-16T12:02:33;522.20;;;501.23;;
16147;SDS011;8179;59.364;18.018;2024-01-16T12:05:01;424.17;;;405.50;;
16147;SDS011;8179;59.364;18.018;2024-01-16T12:07:42;512.67;;;493.20;;
16147;SDS011;8179;59.364;18.018;2024-01-16T12:10:08;222.63;;;215.83;;
16147;SDS011;8179;59.364;18.018;2024-01-16T12:12:35;292.00;;;282.90;;
16147;SDS011;8179;59.364;18.018;2024-01-16T12:15:02;475.83;;;458.70;;
16147;SDS011;8179;59.364;18.018;2024-01-16T12:17:30;716.87;;;683.17;;
16147;SDS011;8179;59.364;18.018;2024-01-16T12:19:57;460.77;;;442.73;;
16147;SDS011;8179;59.364;18.018;2024-01-16T12:22:23;585.57;;;561.57;;
16147;SDS011;8179;59.364;18.018;2024-01-16T12:24:50;405.63;;;391.50;;
16147;SDS011;8179;59.364;18.018;2024-01-16T12:27:21;414.03;;;399.43;;
16147;SDS011;8179;59.364;18.018;2024-01-16T12:29:48;486.20;;;468.43;;
16147;SDS011;8179;59.364;18.018;2024-01-16T12:32:17;308.50;;;298.57;;
16147;SDS011;8179;59.364;18.018;2024-01-16T12:34:45;544.13;;;521.60;;
16147;SDS011;8179;59.364;18.018;2024-01-16T12:37:12;454.73;;;437.53;;
16147;SDS011;8179;59.364;18.018;2024-01-16T12:39:39;294.10;;;284.70;;
16147;SDS011;8179;59.364;18.018;2024-01-16T12:42:06;484.90;;;464.70;;
16147;SDS011;8179;59.364;18.018;2024-01-16T12:44:34;620.10;;;593.47;;
16147;SDS011;8179;59.364;18.018;2024-01-16T12:47:01;469.97;;;453.67;;
16147;SDS011;8179;59.364;18.018;2024-01-16T12:49:28;385.87;;;371.60;;
16147;SDS011;8179;59.364;18.018;2024-01-16T12:54:37;365.67;;;353.87;;
16147;SDS011;8179;59.364;18.018;2024-01-16T12:57:07;438.23;;;423.17;;
16147;SDS011;8179;59.364;18.018;2024-01-16T12:59:38;447.33;;;430.07;;
16147;SDS011;8179;59.364;18.018;2024-01-16T13:02:07;318.07;;;306.90;;
16147;SDS011;8179;59.364;18.018;2024-01-16T13:04:35;720.10;;;683.20;;
16147;SDS011;8179;59.364;18.018;2024-01-16T13:07:02;365.13;;;347.53;;
16147;SDS011;8179;59.364;18.018;2024-01-16T13:09:30;481.03;;;463.43;;
16147;SDS011;8179;59.364;18.018;2024-01-16T13:12:00;411.20;;;393.77;;
16147;SDS011;8179;59.364;18.018;2024-01-16T13:14:27;405.57;;;391.07;;
16147;SDS011;8179;59.364;18.018;2024-01-16T13:16:55;624.90;;;592.60;;
16147;SDS011;8179;59.364;18.018;2024-01-16T13:19:22;304.17;;;294.70;;
16147;SDS011;8179;59.364;18.018;2024-01-16T13:21:49;475.67;;;457.40;;
16147;SDS011;8179;59.364;18.018;2024-01-16T13:24:16;410.87;;;395.93;;
16147;SDS011;8179;59.364;18.018;2024-01-16T13:26:46;296.43;;;286.40;;
16147;SDS011;8179;59.364;18.018;2024-01-16T13:29:14;433.37;;;418.47;;
16147;SDS011;8179;59.364;18.018;2024-01-16T13:31:41;351.60;;;339.87;;
16147;SDS011;8179;59.364;18.018;2024-01-16T13:34:08;365.23;;;352.00;;
16147;SDS011;8179;59.364;18.018;2024-01-16T13:36:35;349.77;;;338.17;;
16147;SDS011;8179;59.364;18.018;2024-01-16T13:39:02;328.57;;;317.87;;
16147;SDS011;8179;59.364;18.018;2024-01-16T13:41:28;505.73;;;486.43;;
16147;SDS011;8179;59.364;18.018;2024-01-16T13:43:56;378.67;;;366.17;;
16147;SDS011;8179;59.364;18.018;2024-01-16T13:46:24;358.40;;;346.33;;
16147;SDS011;8179;59.364;18.018;2024-01-16T13:48:51;240.10;;;232.73;;
16147;SDS011;8179;59.364;18.018;2024-01-16T13:51:17;249.47;;;241.53;;
16147;SDS011;8179;59.364;18.018;2024-01-16T13:53:44;526.10;;;503.50;;
16147;SDS011;8179;59.364;18.018;2024-01-16T13:56:11;264.90;;;256.73;;
16147;SDS011;8179;59.364;18.018;2024-01-16T13:58:37;342.33;;;331.23;;
16147;SDS011;8179;59.364;18.018;2024-01-16T14:01:04;280.03;;;270.90;;
16147;SDS011;8179;59.364;18.018;2024-01-16T14:03:33;540.90;;;519.67;;
16147;SDS011;8179;59.364;18.018;2024-01-16T14:05:59;238.13;;;230.77;;
16147;SDS011;8179;59.364;18.018;2024-01-16T14:08:26;360.87;;;349.30;;
16147;SDS011;8179;59.364;18.018;2024-01-16T14:10:53;312.70;;;302.83;;
16147;SDS011;8179;59.364;18.018;2024-01-16T14:13:19;522.97;;;498.23;;
16147;SDS011;8179;59.364;18.018;2024-01-16T14:15:50;1021.93;;;935.10;;